TimeCDT,TemperatureF,Dew PointF,Humidity,Sea Level PressureIn,VisibilityMPH,Wind Direction,Wind SpeedMPH,Gust SpeedMPH,PrecipitationIn,Events,Conditions,WindDirDegrees,DateUTC
12:22 AM,30.2,28.4,93,30.18,9.0,NNE,6.9,-,0.00,Rain,Light Freezing Rain,20,2013-05-04 05:22:00
12:42 AM,30.2,28.4,93,30.17,10.0,NNE,5.8,-,0.00,,Overcast,30,2013-05-04 05:42:00
12:53 AM,30.9,28.0,89,30.22,10.0,NNE,6.9,-,0.00,,Overcast,30,2013-05-04 05:53:00
1:23 AM,30.2,28.4,93,30.16,10.0,NNE,6.9,-,N/A,,Overcast,30,2013-05-04 06:23:00
1:53 AM,30.9,28.0,89,30.20,10.0,NNE,5.8,-,N/A,,Overcast,30,2013-05-04 06:53:00
2:53 AM,30.9,28.0,89,30.20,10.0,NNE,5.8,-,N/A,,Overcast,20,2013-05-04 07:53:00
3:53 AM,30.9,28.0,89,30.20,10.0,Variable,3.5,-,N/A,,Overcast,0,2013-05-04 08:53:00
4:18 AM,30.2,28.4,93,30.15,7.0,Variable,3.5,-,N/A,,Overcast,0,2013-05-04 09:18:00
4:53 AM,30.9,28.9,92,30.20,10.0,NNE,4.6,-,N/A,,Overcast,20,2013-05-04 09:53:00
5:53 AM,30.9,28.9,92,30.20,10.0,NNE,8.1,-,0.00,,Overcast,30,2013-05-04 10:53:00
6:06 AM,30.2,28.4,93,30.15,6.0,NNE,6.9,-,0.00,Rain,Light Freezing Rain,30,2013-05-04 11:06:00
6:14 AM,30.2,28.4,93,30.15,4.0,NNE,6.9,-,0.03,Rain,Light Freezing Rain,30,2013-05-04 11:14:00
6:27 AM,30.2,28.4,93,30.15,8.0,NNE,6.9,-,0.03,Rain,Light Freezing Rain,20,2013-05-04 11:27:00
6:50 AM,32.0,30.2,93,30.15,10.0,Variable,5.8,-,0.03,,Overcast,0,2013-05-04 11:50:00
6:53 AM,32.0,30.0,92,30.19,10.0,NNE,6.9,-,0.03,,Overcast,20,2013-05-04 11:53:00
7:20 AM,32.0,30.2,93,30.16,3.0,NNE,6.9,-,0.05,Rain,Light Freezing Rain,20,2013-05-04 12:20:00
7:37 AM,32.0,30.2,93,30.16,2.5,NNE,8.1,-,0.10,Rain,Light Freezing Rain,30,2013-05-04 12:37:00
7:40 AM,32.0,30.2,93,30.15,3.0,NNE,5.8,-,0.10,Rain,Light Freezing Rain,20,2013-05-04 12:40:00
7:50 AM,32.0,30.2,93,30.16,5.0,NNE,5.8,-,0.11,Rain,Light Freezing Rain,30,2013-05-04 12:50:00
7:53 AM,32.0,30.0,92,30.20,7.0,Variable,4.6,-,0.11,Rain,Light Freezing Rain,0,2013-05-04 12:53:00
8:35 AM,33.8,30.2,87,30.17,10.0,Calm,Calm,-,0.00,Rain,Light Rain,0,2013-05-04 13:35:00
8:53 AM,33.1,30.0,89,30.22,10.0,NE,8.1,-,0.00,,Overcast,40,2013-05-04 13:53:00
9:38 AM,33.8,30.2,87,30.16,10.0,Variable,5.8,-,N/A,,Unknown,0,2013-05-04 14:38:00
9:53 AM,34.0,32.0,92,30.22,10.0,Variable,4.6,-,N/A,,Unknown,0,2013-05-04 14:53:00
10:53 AM,37.0,33.1,86,30.22,10.0,Variable,4.6,-,N/A,,Unknown,0,2013-05-04 15:53:00
11:00 AM,37.4,33.8,87,30.17,10.0,NE,6.9,-,N/A,,Overcast,40,2013-05-04 16:00:00
11:53 AM,37.9,34.0,86,30.22,10.0,Variable,5.8,-,N/A,,Overcast,0,2013-05-04 16:53:00
12:53 PM,39.0,35.1,86,30.22,10.0,NNE,4.6,-,N/A,,Overcast,20,2013-05-04 17:53:00
1:53 PM,39.0,35.1,86,30.22,10.0,NNE,5.8,-,0.00,,Overcast,30,2013-05-04 18:53:00
2:53 PM,39.9,36.0,86,30.20,10.0,Variable,3.5,-,N/A,,Overcast,0,2013-05-04 19:53:00
3:53 PM,39.9,35.1,83,30.21,10.0,Variable,4.6,-,N/A,,Overcast,0,2013-05-04 20:53:00
4:53 PM,39.0,34.0,82,30.21,10.0,Variable,3.5,-,N/A,,Overcast,0,2013-05-04 21:53:00
5:53 PM,37.0,33.1,86,30.22,10.0,Variable,4.6,-,N/A,,Overcast,0,2013-05-04 22:53:00
6:53 PM,36.0,32.0,86,30.23,10.0,Variable,6.9,-,N/A,,Overcast,0,2013-05-04 23:53:00
7:53 PM,35.1,32.0,89,30.24,10.0,North,5.8,-,N/A,,Overcast,10,2013-05-05 00:53:00
8:25 PM,33.8,30.2,87,30.19,10.0,NNE,6.9,-,N/A,,Overcast,30,2013-05-05 01:25:00
8:53 PM,34.0,30.9,89,30.25,10.0,Variable,6.9,-,N/A,,Overcast,0,2013-05-05 01:53:00
9:53 PM,34.0,30.9,89,30.25,10.0,NNE,5.8,-,N/A,,Overcast,30,2013-05-05 02:53:00
10:53 PM,34.0,32.0,92,30.24,10.0,Calm,Calm,-,N/A,,Overcast,0,2013-05-05 03:53:00
11:53 PM,34.0,32.0,92,30.23,10.0,Variable,3.5,-,N/A,,Overcast,0,2013-05-05 04:53:00